sensor_id;sensor_type;location;lat;lon;timestamp;temperature;humidity
19180;DHT22;9722;48.754;8.868;2023-04-23T00:00:10;12.60;88.00
19180;DHT22;9722;48.754;8.868;2023-04-23T00:03:33;12.70;88.20
19180;DHT22;9722;48.754;8.868;2023-04-23T00:06:56;12.70;88.40
19180;DHT22;9722;48.754;8.868;2023-04-23T00:10:18;12.60;88.70
19180;DHT22;9722;48.754;8.868;2023-04-23T00:13:39;12.60;89.40
19180;DHT22;9722;48.754;8.868;2023-04-23T00:16:59;12.50;89.70
19180;DHT22;9722;48.754;8.868;2023-04-23T00:20:20;12.40;90.00
19180;DHT22;9722;48.754;8.868;2023-04-23T00:23:41;12.40;90.00
19180;DHT22;9722;48.754;8.868;2023-04-23T00:27:01;12.40;90.10
19180;DHT22;9722;48.754;8.868;2023-04-23T00:30:22;12.40;90.10
19180;DHT22;9722;48.754;8.868;2023-04-23T00:33:42;12.40;90.10
19180;DHT22;9722;48.754;8.868;2023-04-23T00:37:03;12.50;90.20
19180;DHT22;9722;48.754;8.868;2023-04-23T00:40:26;12.50;90.20
19180;DHT22;9722;48.754;8.868;2023-04-23T00:43:46;12.50;90.20
19180;DHT22;9722;48.754;8.868;2023-04-23T00:47:08;12.60;90.20
19180;DHT22;9722;48.754;8.868;2023-04-23T00:50:29;12.60;90.10
19180;DHT22;9722;48.754;8.868;2023-04-23T00:53:50;12.70;90.00
19180;DHT22;9722;48.754;8.868;2023-04-23T00:57:10;12.80;90.00
19180;DHT22;9722;48.754;8.868;2023-04-23T01:00:33;12.80;90.00
19180;DHT22;9722;48.754;8.868;2023-04-23T01:03:56;12.90;90.10
19180;DHT22;9722;48.754;8.868;2023-04-23T01:07:17;12.90;90.30
19180;DHT22;9722;48.754;8.868;2023-04-23T01:10:37;12.90;90.50
19180;DHT22;9722;48.754;8.868;2023-04-23T01:13:58;12.90;90.70
19180;DHT22;9722;48.754;8.868;2023-04-23T01:17:19;12.80;90.80
19180;DHT22;9722;48.754;8.868;2023-04-23T01:20:40;12.80;91.10
19180;DHT22;9722;48.754;8.868;2023-04-23T01:24:06;12.80;91.30
19180;DHT22;9722;48.754;8.868;2023-04-23T01:27:26;12.80;91.60
19180;DHT22;9722;48.754;8.868;2023-04-23T01:30:47;12.80;91.70
19180;DHT22;9722;48.754;8.868;2023-04-23T01:34:09;12.70;91.90
19180;DHT22;9722;48.754;8.868;2023-04-23T01:37:31;12.70;92.00
19180;DHT22;9722;48.754;8.868;2023-04-23T01:40:52;12.70;92.60
19180;DHT22;9722;48.754;8.868;2023-04-23T01:44:13;12.60;92.30
19180;DHT22;9722;48.754;8.868;2023-04-23T01:47:35;12.60;92.50
19180;DHT22;9722;48.754;8.868;2023-04-23T01:50:55;12.60;92.60
19180;DHT22;9722;48.754;8.868;2023-04-23T01:54:16;12.60;92.70
19180;DHT22;9722;48.754;8.868;2023-04-23T01:57:37;12.60;92.90
19180;DHT22;9722;48.754;8.868;2023-04-23T02:00:57;12.60;93.00
19180;DHT22;9722;48.754;8.868;2023-04-23T02:04:18;12.60;93.10
19180;DHT22;9722;48.754;8.868;2023-04-23T02:07:39;12.60;93.20
19180;DHT22;9722;48.754;8.868;2023-04-23T02:11:00;12.60;93.30
19180;DHT22;9722;48.754;8.868;2023-04-23T02:14:20;12.50;93.40
19180;DHT22;9722;48.754;8.868;2023-04-23T02:17:41;12.60;93.50
19180;DHT22;9722;48.754;8.868;2023-04-23T02:21:01;12.60;93.50
19180;DHT22;9722;48.754;8.868;2023-04-23T02:24:23;12.50;93.60
19180;DHT22;9722;48.754;8.868;2023-04-23T02:27:44;12.60;93.70
19180;DHT22;9722;48.754;8.868;2023-04-23T02:31:04;12.50;93.60
19180;DHT22;9722;48.754;8.868;2023-04-23T02:34:26;12.50;93.60
19180;DHT22;9722;48.754;8.868;2023-04-23T02:37:46;12.50;93.80
19180;DHT22;9722;48.754;8.868;2023-04-23T02:41:07;12.60;93.80
19180;DHT22;9722;48.754;8.868;2023-04-23T02:44:27;12.50;93.70
19180;DHT22;9722;48.754;8.868;2023-04-23T02:47:48;12.50;93.60
19180;DHT22;9722;48.754;8.868;2023-04-23T02:51:10;12.50;93.50
19180;DHT22;9722;48.754;8.868;2023-04-23T02:54:31;12.50;93.40
19180;DHT22;9722;48.754;8.868;2023-04-23T02:57:51;12.50;93.40
19180;DHT22;9722;48.754;8.868;2023-04-23T03:01:12;12.50;93.30
19180;DHT22;9722;48.754;8.868;2023-04-23T03:04:32;12.50;93.20
19180;DHT22;9722;48.754;8.868;2023-04-23T03:07:53;12.40;93.10
19180;DHT22;9722;48.754;8.868;2023-04-23T03:11:13;12.40;93.10
19180;DHT22;9722;48.754;8.868;2023-04-23T03:14:34;12.40;93.10
19180;DHT22;9722;48.754;8.868;2023-04-23T03:17:55;12.40;93.00
19180;DHT22;9722;48.754;8.868;2023-04-23T03:21:15;12.40;92.90
19180;DHT22;9722;48.754;8.868;2023-04-23T03:24:36;12.40;92.80
19180;DHT22;9722;48.754;8.868;2023-04-23T03:27:56;12.40;92.70
19180;DHT22;9722;48.754;8.868;2023-04-23T03:31:17;12.40;92.70
19180;DHT22;9722;48.754;8.868;2023-04-23T03:34:37;12.40;92.70
19180;DHT22;9722;48.754;8.868;2023-04-23T03:37:58;12.30;92.70
19180;DHT22;9722;48.754;8.868;2023-04-23T03:41:18;12.30;92.70
19180;DHT22;9722;48.754;8.868;2023-04-23T03:44:39;12.20;92.70
19180;DHT22;9722;48.754;8.868;2023-04-23T03:47:59;12.10;92.70
19180;DHT22;9722;48.754;8.868;2023-04-23T03:51:20;12.10;92.80
19180;DHT22;9722;48.754;8.868;2023-04-23T03:54:40;12.10;93.00
19180;DHT22;9722;48.754;8.868;2023-04-23T03:58:01;12.00;93.00
19180;DHT22;9722;48.754;8.868;2023-04-23T04:01:22;12.00;93.10
19180;DHT22;9722;48.754;8.868;2023-04-23T04:04:43;12.00;93.20
19180;DHT22;9722;48.754;8.868;2023-04-23T04:08:05;11.90;93.20
19180;DHT22;9722;48.754;8.868;2023-04-23T04:11:25;11.90;93.30
19180;DHT22;9722;48.754;8.868;2023-04-23T04:14:46;11.70;93.40
19180;DHT22;9722;48.754;8.868;2023-04-23T04:18:06;11.70;93.70
19180;DHT22;9722;48.754;8.868;2023-04-23T04:21:27;11.50;93.90
19180;DHT22;9722;48.754;8.868;2023-04-23T04:24:47;11.50;94.10
19180;DHT22;9722;48.754;8.868;2023-04-23T04:28:11;11.40;94.40
19180;DHT22;9722;48.754;8.868;2023-04-23T04:31:32;11.40;94.60
19180;DHT22;9722;48.754;8.868;2023-04-23T04:34:54;11.30;94.70
19180;DHT22;9722;48.754;8.868;2023-04-23T04:38:14;11.40;94.90
19180;DHT22;9722;48.754;8.868;2023-04-23T04:41:36;11.40;95.10
19180;DHT22;9722;48.754;8.868;2023-04-23T04:44:56;11.40;95.10
19180;DHT22;9722;48.754;8.868;2023-04-23T04:48:19;11.40;95.30
19180;DHT22;9722;48.754;8.868;2023-04-23T04:51:40;11.40;95.40
19180;DHT22;9722;48.754;8.868;2023-04-23T04:55:00;11.40;95.40
19180;DHT22;9722;48.754;8.868;2023-04-23T04:58:21;11.40;95.50
19180;DHT22;9722;48.754;8.868;2023-04-23T05:01:42;11.40;95.60
19180;DHT22;9722;48.754;8.868;2023-04-23T05:05:02;11.50;95.60
19180;DHT22;9722;48.754;8.868;2023-04-23T05:08:24;11.60;95.70
19180;DHT22;9722;48.754;8.868;2023-04-23T05:11:44;11.60;95.70
19180;DHT22;9722;48.754;8.868;2023-04-23T05:15:05;11.70;95.80
19180;DHT22;9722;48.754;8.868;2023-04-23T05:18:26;11.80;95.70
19180;DHT22;9722;48.754;8.868;2023-04-23T05:21:46;11.90;95.60
19180;DHT22;9722;48.754;8.868;2023-04-23T05:25:08;11.90;95.50
19180;DHT22;9722;48.754;8.868;2023-04-23T05:28:29;12.00;95.40
19180;DHT22;9722;48.754;8.868;2023-04-23T05:31:50;12.10;95.50
19180;DHT22;9722;48.754;8.868;2023-04-23T05:35:11;12.20;95.30
19180;DHT22;9722;48.754;8.868;2023-04-23T05:38:31;12.40;95.20
19180;DHT22;9722;48.754;8.868;2023-04-23T05:41:52;12.50;95.00
19180;DHT22;9722;48.754;8.868;2023-04-23T05:45:13;12.50;94.80
19180;DHT22;9722;48.754;8.868;2023-04-23T05:48:33;12.60;94.60
19180;DHT22;9722;48.754;8.868;2023-04-23T05:51:54;12.80;94.50
19180;DHT22;9722;48.754;8.868;2023-04-23T05:55:15;13.00;94.30
19180;DHT22;9722;48.754;8.868;2023-04-23T05:58:35;13.50;94.00
19180;DHT22;9722;48.754;8.868;2023-04-23T06:01:58;14.00;92.90
19180;DHT22;9722;48.754;8.868;2023-04-23T06:05:18;14.30;91.90
19180;DHT22;9722;48.754;8.868;2023-04-23T06:08:39;14.30;91.30
19180;DHT22;9722;48.754;8.868;2023-04-23T06:12:01;14.40;91.00
19180;DHT22;9722;48.754;8.868;2023-04-23T06:15:22;14.40;90.80
19180;DHT22;9722;48.754;8.868;2023-04-23T06:18:46;14.70;90.20
19180;DHT22;9722;48.754;8.868;2023-04-23T06:22:06;15.10;89.00
19180;DHT22;9722;48.754;8.868;2023-04-23T06:25:27;15.50;87.60
19180;DHT22;9722;48.754;8.868;2023-04-23T06:28:48;16.10;85.30
19180;DHT22;9722;48.754;8.868;2023-04-23T06:32:08;16.70;83.30
19180;DHT22;9722;48.754;8.868;2023-04-23T06:35:29;17.10;80.30
19180;DHT22;9722;48.754;8.868;2023-04-23T06:38:50;17.50;77.70
19180;DHT22;9722;48.754;8.868;2023-04-23T06:42:11;17.80;75.40
19180;DHT22;9722;48.754;8.868;2023-04-23T06:45:31;18.10;73.10
19180;DHT22;9722;48.754;8.868;2023-04-23T06:48:52;18.30;70.60
19180;DHT22;9722;48.754;8.868;2023-04-23T06:52:13;18.50;69.70
19180;DHT22;9722;48.754;8.868;2023-04-23T06:55:33;18.80;67.30
19180;DHT22;9722;48.754;8.868;2023-04-23T06:58:53;19.10;66.00
19180;DHT22;9722;48.754;8.868;2023-04-23T07:02:14;19.70;63.70
19180;DHT22;9722;48.754;8.868;2023-04-23T07:05:35;19.60;61.20
19180;DHT22;9722;48.754;8.868;2023-04-23T07:08:55;19.10;61.10
19180;DHT22;9722;48.754;8.868;2023-04-23T07:12:16;18.60;61.70
19180;DHT22;9722;48.754;8.868;2023-04-23T07:15:36;18.30;62.90
19180;DHT22;9722;48.754;8.868;2023-04-23T07:18:57;18.00;63.00
19180;DHT22;9722;48.754;8.868;2023-04-23T07:22:17;17.80;64.20
19180;DHT22;9722;48.754;8.868;2023-04-23T07:25:38;17.60;64.20
19180;DHT22;9722;48.754;8.868;2023-04-23T07:28:59;17.40;64.20
19180;DHT22;9722;48.754;8.868;2023-04-23T07:32:20;17.20;64.70
19180;DHT22;9722;48.754;8.868;2023-04-23T07:35:44;17.10;65.40
19180;DHT22;9722;48.754;8.868;2023-04-23T07:39:05;17.10;65.80
19180;DHT22;9722;48.754;8.868;2023-04-23T07:42:25;17.30;65.50
19180;DHT22;9722;48.754;8.868;2023-04-23T07:45:46;17.60;64.40
19180;DHT22;9722;48.754;8.868;2023-04-23T07:49:06;18.10;63.50
19180;DHT22;9722;48.754;8.868;2023-04-23T07:52:27;18.60;61.90
19180;DHT22;9722;48.754;8.868;2023-04-23T07:55:47;19.40;59.90
19180;DHT22;9722;48.754;8.868;2023-04-23T07:59:08;20.30;58.50
19180;DHT22;9722;48.754;8.868;2023-04-23T08:02:29;21.30;56.50
19180;DHT22;9722;48.754;8.868;2023-04-23T08:05:49;22.00;54.50
19180;DHT22;9722;48.754;8.868;2023-04-23T08:09:10;22.40;53.20
19180;DHT22;9722;48.754;8.868;2023-04-23T08:12:32;22.40;53.00
19180;DHT22;9722;48.754;8.868;2023-04-23T08:15:55;22.90;51.90
19180;DHT22;9722;48.754;8.868;2023-04-23T08:19:15;23.50;51.40
19180;DHT22;9722;48.754;8.868;2023-04-23T08:22:36;24.00;49.40
19180;DHT22;9722;48.754;8.868;2023-04-23T08:25:56;23.40;48.80
19180;DHT22;9722;48.754;8.868;2023-04-23T08:29:17;22.50;49.20
19180;DHT22;9722;48.754;8.868;2023-04-23T08:32:38;22.20;49.60
19180;DHT22;9722;48.754;8.868;2023-04-23T08:35:59;22.60;49.00
19180;DHT22;9722;48.754;8.868;2023-04-23T08:39:20;22.90;48.20
19180;DHT22;9722;48.754;8.868;2023-04-23T08:46:11;23.60;46.70
19180;DHT22;9722;48.754;8.868;2023-04-23T08:49:32;23.20;46.90
19180;DHT22;9722;48.754;8.868;2023-04-23T08:52:55;22.70;47.50
19180;DHT22;9722;48.754;8.868;2023-04-23T08:56:15;22.90;47.90
19180;DHT22;9722;48.754;8.868;2023-04-23T08:59:36;23.70;46.70
19180;DHT22;9722;48.754;8.868;2023-04-23T09:02:58;24.10;45.80
19180;DHT22;9722;48.754;8.868;2023-04-23T09:06:20;23.80;45.50
19180;DHT22;9722;48.754;8.868;2023-04-23T09:09:41;23.40;46.10
19180;DHT22;9722;48.754;8.868;2023-04-23T09:13:01;22.90;46.70
19180;DHT22;9722;48.754;8.868;2023-04-23T09:16:22;23.10;46.90
19180;DHT22;9722;48.754;8.868;2023-04-23T09:19:44;24.00;46.00
19180;DHT22;9722;48.754;8.868;2023-04-23T09:23:06;24.90;43.50
19180;DHT22;9722;48.754;8.868;2023-04-23T09:26:27;25.30;41.10
19180;DHT22;9722;48.754;8.868;2023-04-23T09:29:48;25.00;41.00
19180;DHT22;9722;48.754;8.868;2023-04-23T09:33:12;25.00;40.90
19180;DHT22;9722;48.754;8.868;2023-04-23T09:36:33;25.00;40.60
19180;DHT22;9722;48.754;8.868;2023-04-23T09:39:58;25.00;41.40
19180;DHT22;9722;48.754;8.868;2023-04-23T09:43:19;25.20;41.60
19180;DHT22;9722;48.754;8.868;2023-04-23T09:46:41;25.30;41.20
19180;DHT22;9722;48.754;8.868;2023-04-23T09:50:02;25.00;40.90
19180;DHT22;9722;48.754;8.868;2023-04-23T09:53:25;24.80;41.50
19180;DHT22;9722;48.754;8.868;2023-04-23T09:56:54;24.80;41.30
19180;DHT22;9722;48.754;8.868;2023-04-23T10:00:20;25.60;40.80
19180;DHT22;9722;48.754;8.868;2023-04-23T10:03:42;26.10;40.90
19180;DHT22;9722;48.754;8.868;2023-04-23T10:07:06;25.70;41.30
19180;DHT22;9722;48.754;8.868;2023-04-23T10:10:28;25.40;42.00
19180;DHT22;9722;48.754;8.868;2023-04-23T10:13:49;25.10;42.30
19180;DHT22;9722;48.754;8.868;2023-04-23T10:17:10;24.80;42.60
19180;DHT22;9722;48.754;8.868;2023-04-23T10:20:33;24.70;42.50
19180;DHT22;9722;48.754;8.868;2023-04-23T10:23:54;25.00;42.60
19180;DHT22;9722;48.754;8.868;2023-04-23T10:27:18;24.90;41.50
19180;DHT22;9722;48.754;8.868;2023-04-23T10:30:43;24.70;41.50
19180;DHT22;9722;48.754;8.868;2023-04-23T10:34:04;24.30;41.00
19180;DHT22;9722;48.754;8.868;2023-04-23T10:37:26;24.30;41.90
19180;DHT22;9722;48.754;8.868;2023-04-23T10:40:48;24.30;41.80
19180;DHT22;9722;48.754;8.868;2023-04-23T10:44:11;24.00;41.90
19180;DHT22;9722;48.754;8.868;2023-04-23T10:47:32;24.00;42.50
19180;DHT22;9722;48.754;8.868;2023-04-23T10:50:59;24.90;42.00
19180;DHT22;9722;48.754;8.868;2023-04-23T10:54:20;25.40;40.40
19180;DHT22;9722;48.754;8.868;2023-04-23T10:58:10;25.70;39.40
19180;DHT22;9722;48.754;8.868;2023-04-23T11:01:30;25.70;38.70
19180;DHT22;9722;48.754;8.868;2023-04-23T11:04:55;25.40;40.10
19180;DHT22;9722;48.754;8.868;2023-04-23T11:08:16;25.80;39.80
19180;DHT22;9722;48.754;8.868;2023-04-23T11:11:41;26.30;39.00
19180;DHT22;9722;48.754;8.868;2023-04-23T11:15:15;26.20;38.60
19180;DHT22;9722;48.754;8.868;2023-04-23T11:22:22;25.40;39.80
19180;DHT22;9722;48.754;8.868;2023-04-23T11:25:44;25.00;40.20
19180;DHT22;9722;48.754;8.868;2023-04-23T11:29:05;24.90;40.80
19180;DHT22;9722;48.754;8.868;2023-04-23T11:32:27;25.10;41.00
19180;DHT22;9722;48.754;8.868;2023-04-23T11:35:47;25.30;41.00
19180;DHT22;9722;48.754;8.868;2023-04-23T11:39:08;25.50;41.10
19180;DHT22;9722;48.754;8.868;2023-04-23T11:42:29;25.40;40.40
19180;DHT22;9722;48.754;8.868;2023-04-23T11:45:50;25.60;40.20
19180;DHT22;9722;48.754;8.868;2023-04-23T11:49:11;25.90;40.00
19180;DHT22;9722;48.754;8.868;2023-04-23T11:52:32;25.80;40.10
19180;DHT22;9722;48.754;8.868;2023-04-23T11:55:53;25.40;40.40
19180;DHT22;9722;48.754;8.868;2023-04-23T11:59:13;25.30;41.00
19180;DHT22;9722;48.754;8.868;2023-04-23T12:02:34;25.80;40.70
19180;DHT22;9722;48.754;8.868;2023-04-23T12:05:54;26.70;39.80
19180;DHT22;9722;48.754;8.868;2023-04-23T12:09:17;27.80;38.70
19180;DHT22;9722;48.754;8.868;2023-04-23T12:12:38;28.70;36.70
19180;DHT22;9722;48.754;8.868;2023-04-23T12:16:03;29.70;36.20
19180;DHT22;9722;48.754;8.868;2023-04-23T12:19:28;29.60;35.50
19180;DHT22;9722;48.754;8.868;2023-04-23T12:22:49;30.20;35.10
19180;DHT22;9722;48.754;8.868;2023-04-23T12:26:11;30.40;34.40
19180;DHT22;9722;48.754;8.868;2023-04-23T12:29:31;30.50;34.60
19180;DHT22;9722;48.754;8.868;2023-04-23T12:32:58;31.40;34.30
19180;DHT22;9722;48.754;8.868;2023-04-23T12:36:19;32.30;32.40
19180;DHT22;9722;48.754;8.868;2023-04-23T12:39:39;32.90;32.10
19180;DHT22;9722;48.754;8.868;2023-04-23T12:43:00;33.00;31.10
19180;DHT22;9722;48.754;8.868;2023-04-23T12:46:20;31.90;31.10
19180;DHT22;9722;48.754;8.868;2023-04-23T12:49:41;31.70;31.30
19180;DHT22;9722;48.754;8.868;2023-04-23T12:53:03;31.50;31.60
19180;DHT22;9722;48.754;8.868;2023-04-23T12:56:23;31.30;32.10
19180;DHT22;9722;48.754;8.868;2023-04-23T12:59:44;31.80;31.90
19180;DHT22;9722;48.754;8.868;2023-04-23T13:03:04;32.10;31.80
19180;DHT22;9722;48.754;8.868;2023-04-23T13:06:25;31.70;31.80
19180;DHT22;9722;48.754;8.868;2023-04-23T13:09:45;30.40;32.70
19180;DHT22;9722;48.754;8.868;2023-04-23T13:13:06;28.70;33.80
19180;DHT22;9722;48.754;8.868;2023-04-23T13:16:26;27.30;35.50
19180;DHT22;9722;48.754;8.868;2023-04-23T13:19:47;26.50;36.20
19180;DHT22;9722;48.754;8.868;2023-04-23T13:23:07;25.70;37.50
19180;DHT22;9722;48.754;8.868;2023-04-23T13:26:30;25.80;38.50
19180;DHT22;9722;48.754;8.868;2023-04-23T13:29:54;27.20;37.40
19180;DHT22;9722;48.754;8.868;2023-04-23T13:33:14;28.30;35.30
19180;DHT22;9722;48.754;8.868;2023-04-23T13:36:35;28.30;34.30
19180;DHT22;9722;48.754;8.868;2023-04-23T13:39:56;28.90;33.60
19180;DHT22;9722;48.754;8.868;2023-04-23T13:43:17;28.90;33.80
19180;DHT22;9722;48.754;8.868;2023-04-23T13:46:37;28.40;33.90
19180;DHT22;9722;48.754;8.868;2023-04-23T13:50:00;28.30;33.70
19180;DHT22;9722;48.754;8.868;2023-04-23T13:53:26;28.80;32.80
19180;DHT22;9722;48.754;8.868;2023-04-23T13:56:47;28.80;32.10
19180;DHT22;9722;48.754;8.868;2023-04-23T14:00:08;28.20;31.80
19180;DHT22;9722;48.754;8.868;2023-04-23T14:03:28;27.40;33.00
19180;DHT22;9722;48.754;8.868;2023-04-23T14:06:49;26.90;33.10
19180;DHT22;9722;48.754;8.868;2023-04-23T14:10:10;26.30;33.20
19180;DHT22;9722;48.754;8.868;2023-04-23T14:13:31;25.70;33.70
19180;DHT22;9722;48.754;8.868;2023-04-23T14:16:52;25.30;34.50
19180;DHT22;9722;48.754;8.868;2023-04-23T14:20:13;25.00;35.10
19180;DHT22;9722;48.754;8.868;2023-04-23T14:23:44;24.70;35.40
19180;DHT22;9722;48.754;8.868;2023-04-23T14:27:08;24.20;36.00
19180;DHT22;9722;48.754;8.868;2023-04-23T14:30:28;24.00;36.50
19180;DHT22;9722;48.754;8.868;2023-04-23T14:33:49;23.90;37.20
19180;DHT22;9722;48.754;8.868;2023-04-23T14:37:10;23.80;37.50
19180;DHT22;9722;48.754;8.868;2023-04-23T14:40:30;23.80;37.20
19180;DHT22;9722;48.754;8.868;2023-04-23T14:43:51;23.50;37.10
19180;DHT22;9722;48.754;8.868;2023-04-23T14:47:11;23.30;37.60
19180;DHT22;9722;48.754;8.868;2023-04-23T14:50:32;23.10;38.20
19180;DHT22;9722;48.754;8.868;2023-04-23T14:53:52;23.00;38.60
19180;DHT22;9722;48.754;8.868;2023-04-23T14:57:13;23.00;38.60
19180;DHT22;9722;48.754;8.868;2023-04-23T15:00:33;22.90;38.60
19180;DHT22;9722;48.754;8.868;2023-04-23T15:03:54;22.80;39.00
19180;DHT22;9722;48.754;8.868;2023-04-23T15:07:15;22.80;39.20
19180;DHT22;9722;48.754;8.868;2023-04-23T15:10:36;22.70;39.50
19180;DHT22;9722;48.754;8.868;2023-04-23T15:17:17;22.30;40.20
19180;DHT22;9722;48.754;8.868;2023-04-23T15:20:37;22.40;40.30
19180;DHT22;9722;48.754;8.868;2023-04-23T15:23:58;22.30;40.80
19180;DHT22;9722;48.754;8.868;2023-04-23T15:27:18;22.40;40.80
19180;DHT22;9722;48.754;8.868;2023-04-23T15:30:41;22.40;40.60
19180;DHT22;9722;48.754;8.868;2023-04-23T15:34:04;22.30;40.40
19180;DHT22;9722;48.754;8.868;2023-04-23T15:37:27;22.00;40.40
19180;DHT22;9722;48.754;8.868;2023-04-23T15:40:48;21.90;41.10
19180;DHT22;9722;48.754;8.868;2023-04-23T15:44:09;21.90;41.20
19180;DHT22;9722;48.754;8.868;2023-04-23T15:47:32;21.90;41.40
19180;DHT22;9722;48.754;8.868;2023-04-23T15:50:53;21.80;41.50
19180;DHT22;9722;48.754;8.868;2023-04-23T15:54:13;21.60;41.50
19180;DHT22;9722;48.754;8.868;2023-04-23T15:57:34;21.40;42.00
19180;DHT22;9722;48.754;8.868;2023-04-23T16:00:54;21.10;43.80
19180;DHT22;9722;48.754;8.868;2023-04-23T16:04:15;20.80;45.80
19180;DHT22;9722;48.754;8.868;2023-04-23T16:07:36;20.40;47.70
19180;DHT22;9722;48.754;8.868;2023-04-23T16:10:57;19.90;49.40
19180;DHT22;9722;48.754;8.868;2023-04-23T16:14:18;19.50;50.60
19180;DHT22;9722;48.754;8.868;2023-04-23T16:17:39;18.90;54.90
19180;DHT22;9722;48.754;8.868;2023-04-23T16:21:00;18.20;58.10
19180;DHT22;9722;48.754;8.868;2023-04-23T16:24:20;16.90;65.00
19180;DHT22;9722;48.754;8.868;2023-04-23T16:27:42;15.50;70.40
19180;DHT22;9722;48.754;8.868;2023-04-23T16:31:03;14.40;74.20
19180;DHT22;9722;48.754;8.868;2023-04-23T16:34:23;13.80;78.20
19180;DHT22;9722;48.754;8.868;2023-04-23T16:37:44;13.40;82.10
19180;DHT22;9722;48.754;8.868;2023-04-23T16:41:04;13.10;85.50
19180;DHT22;9722;48.754;8.868;2023-04-23T16:44:25;13.00;88.80
19180;DHT22;9722;48.754;8.868;2023-04-23T16:47:46;13.00;90.70
19180;DHT22;9722;48.754;8.868;2023-04-23T16:51:06;13.00;92.10
19180;DHT22;9722;48.754;8.868;2023-04-23T16:54:27;13.00;93.60
19180;DHT22;9722;48.754;8.868;2023-04-23T16:57:47;13.10;95.40
19180;DHT22;9722;48.754;8.868;2023-04-23T17:01:08;13.10;96.60
19180;DHT22;9722;48.754;8.868;2023-04-23T17:04:28;13.10;97.50
19180;DHT22;9722;48.754;8.868;2023-04-23T17:07:49;13.10;98.70
19180;DHT22;9722;48.754;8.868;2023-04-23T17:11:12;13.10;98.90
19180;DHT22;9722;48.754;8.868;2023-04-23T17:14:32;13.10;99.10
19180;DHT22;9722;48.754;8.868;2023-04-23T17:17:52;13.10;99.10
19180;DHT22;9722;48.754;8.868;2023-04-23T17:21:13;13.10;99.00
19180;DHT22;9722;48.754;8.868;2023-04-23T17:24:34;13.10;99.20
19180;DHT22;9722;48.754;8.868;2023-04-23T17:27:54;13.10;99.10
19180;DHT22;9722;48.754;8.868;2023-04-23T17:31:15;13.00;99.10
19180;DHT22;9722;48.754;8.868;2023-04-23T17:34:36;13.00;99.20
19180;DHT22;9722;48.754;8.868;2023-04-23T17:37:57;13.00;98.90
19180;DHT22;9722;48.754;8.868;2023-04-23T17:41:17;12.90;99.00
19180;DHT22;9722;48.754;8.868;2023-04-23T17:44:38;12.90;98.90
19180;DHT22;9722;48.754;8.868;2023-04-23T17:47:59;12.90;99.00
19180;DHT22;9722;48.754;8.868;2023-04-23T17:51:20;13.00;98.80
19180;DHT22;9722;48.754;8.868;2023-04-23T17:54:41;12.90;98.60
19180;DHT22;9722;48.754;8.868;2023-04-23T17:58:01;12.90;98.80
19180;DHT22;9722;48.754;8.868;2023-04-23T18:01:24;12.90;98.90
19180;DHT22;9722;48.754;8.868;2023-04-23T18:04:46;12.90;99.10
19180;DHT22;9722;48.754;8.868;2023-04-23T18:08:06;12.90;98.90
19180;DHT22;9722;48.754;8.868;2023-04-23T18:11:27;12.80;98.60
19180;DHT22;9722;48.754;8.868;2023-04-23T18:14:48;12.70;98.50
19180;DHT22;9722;48.754;8.868;2023-04-23T18:18:08;12.60;98.60
19180;DHT22;9722;48.754;8.868;2023-04-23T18:21:29;12.50;98.70
19180;DHT22;9722;48.754;8.868;2023-04-23T18:24:50;12.50;98.90
19180;DHT22;9722;48.754;8.868;2023-04-23T18:28:11;12.40;99.00
19180;DHT22;9722;48.754;8.868;2023-04-23T18:31:31;12.30;99.10
19180;DHT22;9722;48.754;8.868;2023-04-23T18:34:52;12.30;99.30
19180;DHT22;9722;48.754;8.868;2023-04-23T18:38:42;12.20;99.50
19180;DHT22;9722;48.754;8.868;2023-04-23T18:42:04;12.20;99.70
19180;DHT22;9722;48.754;8.868;2023-04-23T18:45:24;12.20;99.90
19180;DHT22;9722;48.754;8.868;2023-04-23T18:52:29;12.30;99.90
19180;DHT22;9722;48.754;8.868;2023-04-23T18:55:50;12.30;99.90
19180;DHT22;9722;48.754;8.868;2023-04-23T18:59:10;12.40;99.80
19180;DHT22;9722;48.754;8.868;2023-04-23T19:02:31;12.40;99.20
19180;DHT22;9722;48.754;8.868;2023-04-23T19:05:51;12.40;98.70
19180;DHT22;9722;48.754;8.868;2023-04-23T19:09:12;12.50;98.40
19180;DHT22;9722;48.754;8.868;2023-04-23T19:12:33;12.60;97.70
19180;DHT22;9722;48.754;8.868;2023-04-23T19:15:53;12.70;96.80
19180;DHT22;9722;48.754;8.868;2023-04-23T19:19:14;12.80;95.80
19180;DHT22;9722;48.754;8.868;2023-04-23T19:22:34;12.90;95.20
19180;DHT22;9722;48.754;8.868;2023-04-23T19:25:55;13.00;94.70
19180;DHT22;9722;48.754;8.868;2023-04-23T19:29:16;13.00;94.70
19180;DHT22;9722;48.754;8.868;2023-04-23T19:32:37;12.90;94.40
19180;DHT22;9722;48.754;8.868;2023-04-23T19:35:57;12.90;94.30
19180;DHT22;9722;48.754;8.868;2023-04-23T19:39:18;12.90;94.70
19180;DHT22;9722;48.754;8.868;2023-04-23T19:42:38;12.80;94.60
19180;DHT22;9722;48.754;8.868;2023-04-23T19:45:59;12.70;94.50
19180;DHT22;9722;48.754;8.868;2023-04-23T19:49:19;12.70;94.60
19180;DHT22;9722;48.754;8.868;2023-04-23T19:52:40;12.60;94.60
19180;DHT22;9722;48.754;8.868;2023-04-23T19:56:01;12.60;94.50
19180;DHT22;9722;48.754;8.868;2023-04-23T19:59:21;12.50;94.40
19180;DHT22;9722;48.754;8.868;2023-04-23T20:02:42;12.50;94.30
19180;DHT22;9722;48.754;8.868;2023-04-23T20:06:02;12.30;94.20
19180;DHT22;9722;48.754;8.868;2023-04-23T20:09:23;12.30;94.30
19180;DHT22;9722;48.754;8.868;2023-04-23T20:12:44;12.20;94.30
19180;DHT22;9722;48.754;8.868;2023-04-23T20:16:05;12.20;94.30
19180;DHT22;9722;48.754;8.868;2023-04-23T20:19:27;12.20;94.10
19180;DHT22;9722;48.754;8.868;2023-04-23T20:22:50;12.10;94.00
19180;DHT22;9722;48.754;8.868;2023-04-23T20:26:10;12.00;93.90
19180;DHT22;9722;48.754;8.868;2023-04-23T20:29:31;12.00;93.80
19180;DHT22;9722;48.754;8.868;2023-04-23T20:32:51;12.00;93.70
19180;DHT22;9722;48.754;8.868;2023-04-23T20:36:12;11.90;94.00
19180;DHT22;9722;48.754;8.868;2023-04-23T20:39:35;11.90;93.50
19180;DHT22;9722;48.754;8.868;2023-04-23T20:42:56;11.90;93.10
19180;DHT22;9722;48.754;8.868;2023-04-23T20:46:17;11.80;92.80
19180;DHT22;9722;48.754;8.868;2023-04-23T20:49:38;11.80;92.60
19180;DHT22;9722;48.754;8.868;2023-04-23T20:52:59;11.80;92.50
19180;DHT22;9722;48.754;8.868;2023-04-23T20:56:20;11.80;92.30
19180;DHT22;9722;48.754;8.868;2023-04-23T20:59:41;11.70;92.00
19180;DHT22;9722;48.754;8.868;2023-04-23T21:03:01;11.70;91.80
19180;DHT22;9722;48.754;8.868;2023-04-23T21:06:22;11.60;91.80
19180;DHT22;9722;48.754;8.868;2023-04-23T21:09:43;11.60;91.80
19180;DHT22;9722;48.754;8.868;2023-04-23T21:13:08;11.50;91.90
19180;DHT22;9722;48.754;8.868;2023-04-23T21:16:29;11.50;92.10
19180;DHT22;9722;48.754;8.868;2023-04-23T21:19:50;11.40;92.30
19180;DHT22;9722;48.754;8.868;2023-04-23T21:23:10;11.30;92.50
19180;DHT22;9722;48.754;8.868;2023-04-23T21:26:31;11.30;92.70
19180;DHT22;9722;48.754;8.868;2023-04-23T21:29:52;11.20;93.00
19180;DHT22;9722;48.754;8.868;2023-04-23T21:33:13;11.10;93.20
19180;DHT22;9722;48.754;8.868;2023-04-23T21:36:34;11.10;93.50
19180;DHT22;9722;48.754;8.868;2023-04-23T21:39:54;11.00;93.70
19180;DHT22;9722;48.754;8.868;2023-04-23T21:43:15;10.90;93.80